Flight Track Log - Related Links

Times and Time Zones

All times are in EDT time to prevent confusion due to time zone crossing. See the N895SC flight status page for this flight to view local times or setup timezone preferences in your user account.


Time Position Orientation Groundspeed Altitude Reporting Facility
EDT Latitude Longitude Course Direction KTS MPH feet Rate Location/Type
Sun 12:04:38 AM 24.5583 -81.7333 North 153 176 600  Level Miami Center
Sun 12:05:00 AM 24.8436 -81.7624 North  Level Estimated
Sun 12:05:38 AM 24.5917 -81.7347 358° North 91 105 1,300  Level Miami Center
Sun 12:06:38 AM 24.6247 -81.7497 338° Northwest 82 94 2,200 934 Climbing Miami Center
Sun 12:07:40 AM 24.6536 -81.7556 350° North 93 107 3,200 934 Climbing Miami Center
Sun 12:08:40 AM 24.6828 -81.7611 350° North 98 113 4,100 850 Climbing Miami Center
Sun 12:09:40 AM 24.7158 -81.7672 350° North 108 124 4,900 864 Climbing Miami Center
Sun 12:10:38 AM 24.7514 -81.7661 North 113 130 5,800 942 Climbing Miami Center
Sun 12:11:41 AM 24.7889 -81.7678 358° North 120 138 6,800 600 Climbing Miami Center
Sun 12:12:38 AM 24.8308 -81.7694 358° North 130 150 7,000 154 Climbing Miami Center
Sun 12:13:38 AM 24.8786 -81.7711 358° North 152 175 7,100 50 Climbing Miami Center
Sun 12:14:39 AM 24.9267 -81.7686 North 163 188 7,100  Level Miami Center
Sun 12:15:38 AM 24.9769 -81.7683 360° North 168 193 7,100 -50 Level Miami Center
Sun 12:16:40 AM 25.0269 -81.7681 360° North 173 199 7,000 -49 Descending Miami Center
Sun 12:17:40 AM 25.0769 -81.7700 358° North 179 206 7,000  Level Miami Center
Sun 12:18:38 AM 25.1272 -81.7697 360° North 179 206 7,000  Level Miami Center
Sun 12:19:38 AM 25.1772 -81.7694 360° North 179 206 7,000  Level Miami Center
Sun 12:20:38 AM 25.2275 -81.7714 358° North 179 206 7,000  Level Miami Center
Sun 12:21:41 AM 25.2775 -81.7711 360° North 179 206 7,000 50 Level Miami Center
Sun 12:22:39 AM 25.3278 -81.7686 North 179 206 7,100  Climbing Miami Center
Sun 12:23:38 AM 25.3778 -81.7683 360° North 179 206 7,000 -50 Descending Miami Center
Sun 12:24:38 AM 25.4278 -81.7703 358° North 179 206 7,000 49 Level Miami Center
Sun 12:25:40 AM 25.4803 -81.7678 North 179 206 7,100 50 Climbing Miami Center
Sun 12:26:38 AM 25.5281 -81.7700 358° North 179 206 7,100  Level Miami Center
Sun 12:27:38 AM 25.5781 -81.7764 353° North 179 206 7,100 -149 Level Miami Center
Sun 12:28:39 AM 25.6297 -81.7878 349° North 179 206 6,800 -350 Descending Miami Center
Sun 12:29:38 AM 25.6817 -81.7969 351° North 179 206 6,400 -400 Descending Miami Center
Sun 12:30:39 AM 25.7336 -81.8036 353° North 179 206 6,000 -488 Descending Miami Center
Sun 12:31:41 AM 25.7856 -81.8150 349° North 179 206 5,400 -555 Descending Miami Center
Sun 12:32:38 AM 25.8375 -81.8217 353° North 184 212 4,900 -526 Descending Miami Center
Sun 12:34:00 AM 25.8870 -81.8087 13° North  Level FlightAware Approximate

Login

Don't have an account? Register now (free) for customized features, flight alerts, and more!